createdAt,value
2023-03-29T00:00:46.354Z,95764.88
2023-03-29T00:01:48.158Z,95771.81
2023-03-29T00:02:50.183Z,95778.44
2023-03-29T00:03:54.517Z,95781.47
2023-03-29T00:04:57.680Z,95791.16
2023-03-29T00:06:03.215Z,95793.56
2023-03-29T00:07:05.059Z,95801.44
2023-03-29T00:08:07.385Z,95801.91
2023-03-29T00:09:10.188Z,95811.16
2023-03-29T00:10:13.129Z,95823.91
2023-03-29T00:11:17.931Z,95830.56
2023-03-29T00:12:19.784Z,95834.59
2023-03-29T00:13:21.468Z,95839.06
2023-03-29T00:14:23.082Z,95843.13
2023-03-29T00:15:24.888Z,95853.00
2023-03-29T00:16:27.018Z,95827.28
2023-03-29T00:17:28.963Z,95810.31
2023-03-29T00:18:30.622Z,95790.31
2023-03-29T00:19:35.680Z,95790.97
2023-03-29T00:20:37.491Z,95805.34
2023-03-29T00:21:41.538Z,95809.47
2023-03-29T00:22:46.820Z,95811.84
2023-03-29T00:23:50.926Z,95807.25
2023-03-29T00:24:54.149Z,95801.97
2023-03-29T00:25:56.562Z,95789.44
2023-03-29T00:26:58.377Z,95784.22
2023-03-29T00:28:00.015Z,95772.59
2023-03-29T00:29:01.723Z,95764.69
2023-03-29T00:30:05.574Z,95772.19
2023-03-29T00:31:13.035Z,95773.34
2023-03-29T00:32:15.586Z,95780.22
2023-03-29T00:33:20.586Z,95786.72
2023-03-29T00:34:30.625Z,95780.81
2023-03-29T00:35:32.587Z,95786.28
2023-03-29T00:36:34.630Z,95779.38
2023-03-29T00:37:36.879Z,95780.38
2023-03-29T00:38:39.299Z,95771.28
2023-03-29T00:39:42.065Z,95778.16
2023-03-29T00:40:47.020Z,95781.00
2023-03-29T00:41:50.340Z,95781.38
2023-03-29T00:42:52.182Z,95788.66
2023-03-29T00:43:58.253Z,95789.09
2023-03-29T00:45:06.175Z,95796.94
2023-03-29T00:46:09.044Z,95781.97
2023-03-29T00:47:13.531Z,95762.00
2023-03-29T00:48:24.379Z,95770.28
2023-03-29T00:49:26.319Z,95780.03
2023-03-29T00:50:39.443Z,95794.53
2023-03-29T00:51:42.678Z,95789.47
2023-03-29T00:52:48.672Z,95776.13
2023-03-29T00:53:55.599Z,95756.53
2023-03-29T00:55:02.029Z,95760.56
2023-03-29T00:56:18.452Z,95755.13
2023-03-29T00:57:21.715Z,95758.78
2023-03-29T00:58:38.232Z,95764.44
2023-03-29T00:59:44.680Z,95775.72
2023-03-29T01:00:57.843Z,95770.06
2023-03-29T01:02:05.320Z,95766.03
2023-03-29T01:03:13.891Z,95757.91
2023-03-29T01:04:29.250Z,95757.13
2023-03-29T01:05:39.273Z,95752.47
2023-03-29T01:06:43.378Z,95748.41
2023-03-29T01:07:57.949Z,95745.03
2023-03-29T01:09:03.106Z,95748.22
2023-03-29T01:10:12.585Z,95746.19
2023-03-29T01:11:22.229Z,95749.41
2023-03-29T01:12:31.092Z,95757.50
2023-03-29T01:13:46.534Z,95758.72
2023-03-29T01:15:01.506Z,95760.34
2023-03-29T01:16:04.069Z,95768.44
2023-03-29T01:17:06.944Z,95776.13
2023-03-29T01:18:09.539Z,95772.47
2023-03-29T01:19:15.898Z,95778.09
2023-03-29T01:20:30.776Z,95780.56
2023-03-29T01:21:42.694Z,95788.44
2023-03-29T01:23:14.318Z,95785.63
2023-03-29T01:24:38.208Z,95785.63
2023-03-29T01:26:17.308Z,95781.63
2023-03-29T01:27:55.731Z,95770.16
2023-03-29T01:29:06.958Z,95765.38
2023-03-29T01:30:14.194Z,95766.22
2023-03-29T01:31:25.183Z,95775.28
2023-03-29T01:32:36.608Z,95779.13
2023-03-29T01:33:47.624Z,95787.19
2023-03-29T01:34:56.766Z,95783.94
2023-03-29T01:36:19.066Z,95769.25
2023-03-29T01:37:26.695Z,95741.97
2023-03-29T01:38:43.188Z,95736.50
2023-03-29T01:39:46.254Z,95733.09
2023-03-29T01:40:48.008Z,95721.00
2023-03-29T01:42:04.452Z,95713.13
2023-03-29T01:43:23.467Z,95714.09
2023-03-29T01:44:56.431Z,95711.31
2023-03-29T01:46:01.700Z,95709.84
2023-03-29T01:47:21.624Z,95698.53
2023-03-29T01:48:31.535Z,95679.09
2023-03-29T01:49:52.207Z,95676.09
2023-03-29T01:51:04.587Z,95681.63
2023-03-29T01:52:06.261Z,95669.69
2023-03-29T01:53:14.034Z,95672.69
2023-03-29T01:54:26.311Z,95675.28
2023-03-29T01:55:41.580Z,95679.31
2023-03-29T01:56:45.604Z,95687.78
2023-03-29T01:57:49.209Z,95702.91
2023-03-29T01:58:58.306Z,95718.47
2023-03-29T02:00:05.423Z,95730.16
2023-03-29T02:01:19.086Z,95734.22
2023-03-29T02:02:23.132Z,95740.88
2023-03-29T02:03:28.176Z,95744.31
2023-03-29T02:04:38.529Z,95745.94
2023-03-29T02:05:46.005Z,95750.16
2023-03-29T02:06:50.157Z,95747.13
2023-03-29T02:07:52.946Z,95747.72
2023-03-29T02:08:55.773Z,95766.13
2023-03-29T02:09:58.872Z,95761.69
2023-03-29T02:11:01.541Z,95757.81
2023-03-29T02:12:05.001Z,95743.66
2023-03-29T02:13:10.079Z,95734.59
2023-03-29T02:14:13.849Z,95721.44
2023-03-29T02:15:19.402Z,95716.44
2023-03-29T02:16:21.268Z,95709.16
2023-03-29T02:17:25.806Z,95711.25
2023-03-29T02:18:27.781Z,95697.88
2023-03-29T02:19:29.762Z,95697.63
2023-03-29T02:20:40.579Z,95692.56
2023-03-29T02:21:48.389Z,95693.75
2023-03-29T02:23:02.109Z,95685.88
2023-03-29T02:24:11.811Z,95680.00
2023-03-29T02:25:13.799Z,95679.75
2023-03-29T02:26:17.588Z,95673.06
2023-03-29T02:27:25.370Z,95671.03
2023-03-29T02:28:28.563Z,95681.94
2023-03-29T02:29:30.701Z,95672.22
2023-03-29T02:30:57.731Z,95676.53
2023-03-29T02:32:21.968Z,95667.88
2023-03-29T02:33:52.096Z,95664.25
2023-03-29T02:35:16.845Z,95676.78
2023-03-29T02:36:27.413Z,95686.03
2023-03-29T02:37:32.734Z,95676.78
2023-03-29T02:38:39.110Z,95675.59
2023-03-29T02:39:42.053Z,95675.78
2023-03-29T02:40:46.786Z,95682.28
2023-03-29T02:41:51.113Z,95685.91
2023-03-29T02:42:55.639Z,95688.91
2023-03-29T02:44:00.409Z,95700.44
2023-03-29T02:45:04.962Z,95688.72
2023-03-29T02:46:08.003Z,95683.72
2023-03-29T02:47:15.633Z,95695.44
2023-03-29T02:48:20.845Z,95692.19
2023-03-29T02:49:23.599Z,95683.72
2023-03-29T02:50:30.716Z,95682.09
2023-03-29T02:51:34.363Z,95686.53
2023-03-29T02:52:43.478Z,95684.09
2023-03-29T02:53:52.610Z,95687.13
2023-03-29T02:54:55.871Z,95681.44
2023-03-29T02:56:02.337Z,95685.69
2023-03-29T02:57:07.586Z,95686.78
2023-03-29T02:58:09.331Z,95687.38
2023-03-29T02:59:14.399Z,95680.88
2023-03-29T03:00:18.820Z,95678.06
2023-03-29T03:01:20.782Z,95686.13
2023-03-29T03:02:27.818Z,95676.00
2023-03-29T03:03:33.090Z,95673.97
2023-03-29T03:04:36.357Z,95669.75
2023-03-29T03:05:39.140Z,95674.00
2023-03-29T03:06:41.695Z,95672.78
2023-03-29T03:07:46.114Z,95675.00
2023-03-29T03:08:48.647Z,95673.63
2023-03-29T03:09:50.242Z,95686.38
2023-03-29T03:10:52.580Z,95688.72
2023-03-29T03:11:54.334Z,95684.06
2023-03-29T03:12:58.936Z,95669.16
2023-03-29T03:14:00.956Z,95664.84
2023-03-29T03:15:08.004Z,95663.81
2023-03-29T03:16:13.276Z,95656.75
2023-03-29T03:17:18.746Z,95674.50
2023-03-29T03:18:22.600Z,95685.78
2023-03-29T03:19:24.806Z,95684.16
2023-03-29T03:20:26.573Z,95674.28
2023-03-29T03:21:30.085Z,95658.75
2023-03-29T03:22:35.048Z,95668.69
2023-03-29T03:23:39.716Z,95678.34
2023-03-29T03:24:41.961Z,95682.19
2023-03-29T03:25:45.997Z,95680.94
2023-03-29T03:26:49.959Z,95676.09
2023-03-29T03:27:54.207Z,95673.63
2023-03-29T03:29:01.189Z,95682.53
2023-03-29T03:30:23.327Z,95691.97
2023-03-29T03:31:30.796Z,95695.00
2023-03-29T03:32:50.002Z,95697.63
2023-03-29T03:34:14.203Z,95696.78
2023-03-29T03:35:23.758Z,95676.97
2023-03-29T03:36:26.285Z,95687.31
2023-03-29T03:37:29.337Z,95702.66
2023-03-29T03:38:31.125Z,95701.47
2023-03-29T03:39:34.650Z,95693.75
2023-03-29T03:40:39.370Z,95698.41
2023-03-29T03:41:41.139Z,95689.94
2023-03-29T03:42:42.970Z,95696.03
2023-03-29T03:43:48.776Z,95699.84
2023-03-29T03:44:51.078Z,95697.81
2023-03-29T03:46:19.228Z,95699.41
2023-03-29T03:47:21.451Z,95703.47
2023-03-29T03:48:25.801Z,95683.47
2023-03-29T03:49:40.922Z,95694.22
2023-03-29T03:50:49.037Z,95710.78
2023-03-29T03:51:52.592Z,95701.88
2023-03-29T03:52:54.569Z,95684.50
2023-03-29T03:53:56.723Z,95679.91
2023-03-29T03:55:10.890Z,95683.38
2023-03-29T03:56:34.212Z,95673.28
2023-03-29T03:57:39.086Z,95697.69
2023-03-29T03:58:46.283Z,95697.28
2023-03-29T03:59:49.205Z,95690.78
2023-03-29T04:00:55.973Z,95679.06
2023-03-29T04:02:11.147Z,95680.09
2023-03-29T04:03:18.021Z,95680.09
2023-03-29T04:04:19.914Z,95676.44
2023-03-29T04:05:46.440Z,95681.69
2023-03-29T04:06:50.565Z,95677.63
2023-03-29T04:08:12.581Z,95681.88
2023-03-29T04:09:33.507Z,95693.03
2023-03-29T04:10:56.763Z,95686.34
2023-03-29T04:12:03.547Z,95685.31
2023-03-29T04:13:05.959Z,95683.88
2023-03-29T04:14:11.457Z,95682.66
2023-03-29T04:15:27.046Z,95673.75
2023-03-29T04:16:37.611Z,95669.94
2023-03-29T04:18:00.637Z,95671.97
2023-03-29T04:19:08.326Z,95680.84
2023-03-29T04:20:12.367Z,95681.25
2023-03-29T04:21:16.972Z,95680.44
2023-03-29T04:22:19.760Z,95679.06
2023-03-29T04:23:21.454Z,95678.41
2023-03-29T04:24:24.941Z,95668.50
2023-03-29T04:25:46.601Z,95671.53
2023-03-29T04:27:17.332Z,95677.38
2023-03-29T04:28:19.596Z,95684.25
2023-03-29T04:29:39.215Z,95692.97
2023-03-29T04:44:28.931Z,95653.50
2023-03-29T04:45:33.280Z,95664.00
2023-03-29T04:46:58.333Z,95661.16
2023-03-29T04:48:26.577Z,95658.13
2023-03-29T04:49:29.018Z,95658.72
2023-03-29T04:50:30.922Z,95657.28
2023-03-29T04:51:33.181Z,95653.41
2023-03-29T04:52:35.532Z,95653.00
2023-03-29T04:53:39.332Z,95655.44
2023-03-29T04:54:41.166Z,95663.09
2023-03-29T04:55:55.617Z,95661.09
2023-03-29T04:57:17.081Z,95655.00
2023-03-29T04:58:32.226Z,95662.28
2023-03-29T04:59:35.143Z,95657.03
2023-03-29T05:00:42.977Z,95653.22
2023-03-29T05:02:05.327Z,95661.09
2023-03-29T05:03:07.429Z,95655.44
2023-03-29T05:04:14.177Z,95658.47
2023-03-29T05:05:29.267Z,95662.72
2023-03-29T05:06:37.299Z,95659.50
2023-03-29T05:07:41.150Z,95662.72
2023-03-29T05:08:44.690Z,95656.63
2023-03-29T05:10:07.065Z,95660.50
2023-03-29T05:11:10.859Z,95659.31
2023-03-29T05:12:12.970Z,95662.78
2023-03-29T05:13:26.461Z,95669.66
2023-03-29T05:14:28.056Z,95663.63
2023-03-29T05:15:32.737Z,95654.47
2023-03-29T05:16:35.650Z,95656.09
2023-03-29T05:17:37.788Z,95657.72
2023-03-29T05:18:43.735Z,95656.94
2023-03-29T05:19:48.422Z,95650.28
2023-03-29T05:20:53.120Z,95649.25
2023-03-29T05:21:56.124Z,95648.66
2023-03-29T05:23:00.514Z,95656.13
2023-03-29T05:24:31.034Z,95665.41
2023-03-29T05:25:36.168Z,95668.03
2023-03-29T05:26:38.473Z,95665.59
2023-03-29T05:27:40.483Z,95677.06
2023-03-29T05:28:44.254Z,95671.19
2023-03-29T05:29:46.644Z,95678.84
2023-03-29T05:31:11.288Z,95674.81
2023-03-29T05:32:15.001Z,95659.41
2023-03-29T05:33:19.541Z,95663.22
2023-03-29T05:34:21.342Z,95647.72
2023-03-29T05:35:30.318Z,95644.31
2023-03-29T05:36:33.862Z,95639.69
2023-03-29T05:37:35.778Z,95650.38
2023-03-29T05:38:41.121Z,95648.16
2023-03-29T05:39:43.177Z,95652.19
2023-03-29T05:40:44.998Z,95653.16
2023-03-29T05:42:19.243Z,95646.47
2023-03-29T05:43:28.241Z,95643.66
2023-03-29T05:44:30.382Z,95647.81
2023-03-29T05:45:40.447Z,95642.31
2023-03-29T05:46:42.188Z,95652.38
2023-03-29T05:47:48.528Z,95657.84
2023-03-29T05:48:50.609Z,95665.31
2023-03-29T05:49:53.312Z,95670.31
2023-03-29T05:50:59.412Z,95667.94
2023-03-29T05:52:04.094Z,95675.81
2023-03-29T05:53:08.000Z,95665.06
2023-03-29T05:54:09.939Z,95663.25
2023-03-29T05:55:11.975Z,95658.78
2023-03-29T05:56:16.295Z,95670.72
2023-03-29T05:57:18.474Z,95675.75
2023-03-29T05:58:21.673Z,95661.47
2023-03-29T05:59:24.547Z,95656.34
2023-03-29T06:00:30.025Z,95664.66
2023-03-29T06:01:46.966Z,95657.19
2023-03-29T06:02:52.845Z,95665.88
2023-03-29T06:03:57.896Z,95674.38
2023-03-29T06:05:07.085Z,95673.34
2023-03-29T06:06:16.458Z,95673.56
2023-03-29T06:07:18.443Z,95672.94
2023-03-29T06:08:35.747Z,95660.22
2023-03-29T06:09:42.765Z,95659.63
2023-03-29T06:10:45.723Z,95664.28
2023-03-29T06:12:21.028Z,95677.44
2023-03-29T06:13:34.078Z,95695.66
2023-03-29T06:14:36.488Z,95689.75
2023-03-29T06:15:57.364Z,95689.91
2023-03-29T06:17:01.871Z,95680.00
2023-03-29T06:18:04.584Z,95693.97
2023-03-29T06:19:07.329Z,95700.91
2023-03-29T06:20:11.782Z,95694.41
2023-03-29T06:21:16.860Z,95691.78
2023-03-29T06:22:18.498Z,95701.69
2023-03-29T06:23:21.369Z,95694.09
2023-03-29T06:24:25.020Z,95699.50
2023-03-29T06:25:34.152Z,95699.69
2023-03-29T06:26:38.667Z,95690.00
2023-03-29T06:27:40.375Z,95687.53
2023-03-29T06:28:42.200Z,95690.03
2023-03-29T06:29:43.958Z,95686.31
2023-03-29T06:30:46.045Z,95690.81
2023-03-29T06:31:48.288Z,95687.19
2023-03-29T06:33:10.619Z,95697.19
2023-03-29T06:34:32.787Z,95707.69
2023-03-29T06:35:50.403Z,95713.03
2023-03-29T06:36:57.687Z,95705.88
2023-03-29T06:37:59.386Z,95693.72
2023-03-29T06:39:08.769Z,95691.03
2023-03-29T06:40:29.408Z,95685.16
2023-03-29T06:41:33.411Z,95669.97
2023-03-29T06:42:43.180Z,95674.00
2023-03-29T06:44:11.652Z,95685.13
2023-03-29T06:45:29.317Z,95689.25
2023-03-29T06:46:34.216Z,95684.13
2023-03-29T06:47:40.945Z,95692.31
2023-03-29T06:48:42.765Z,95699.34
2023-03-29T06:49:44.462Z,95706.06
2023-03-29T06:51:02.227Z,95708.13
2023-03-29T06:52:05.947Z,95711.28
2023-03-29T06:53:07.910Z,95719.72
2023-03-29T06:54:10.370Z,95712.84
2023-03-29T06:55:17.753Z,95703.09
2023-03-29T06:56:19.544Z,95707.13
2023-03-29T06:57:28.601Z,95712.16
2023-03-29T06:58:30.547Z,95714.00
2023-03-29T06:59:43.175Z,95708.44
2023-03-29T07:00:51.765Z,95699.50
2023-03-29T07:02:02.766Z,95706.97
2023-03-29T07:03:27.940Z,95701.72
2023-03-29T07:04:32.232Z,95706.59
2023-03-29T07:05:48.381Z,95715.47
2023-03-29T07:07:01.474Z,95719.47
2023-03-29T07:08:07.813Z,95724.53
2023-03-29T07:09:32.310Z,95714.94
2023-03-29T07:10:53.385Z,95724.59
2023-03-29T07:12:01.451Z,95725.09
2023-03-29T07:13:03.040Z,95724.22
2023-03-29T07:14:04.724Z,95722.47
2023-03-29T07:15:07.777Z,95715.13
2023-03-29T07:16:32.685Z,95695.22
2023-03-29T07:17:50.569Z,95703.69
2023-03-29T07:18:52.723Z,95690.66
2023-03-29T07:20:17.838Z,95695.47
2023-03-29T07:21:22.896Z,95694.59
2023-03-29T07:22:24.561Z,95695.31
2023-03-29T07:23:30.943Z,95693.41
2023-03-29T07:24:32.609Z,95693.25
2023-03-29T07:25:34.352Z,95685.75
2023-03-29T07:26:36.555Z,95696.34
2023-03-29T07:27:40.274Z,95700.13
2023-03-29T07:28:43.155Z,95700.03
2023-03-29T07:29:45.094Z,95691.91
2023-03-29T07:30:46.881Z,95698.66
2023-03-29T07:31:51.812Z,95707.25
2023-03-29T07:33:14.482Z,95713.00
2023-03-29T07:34:37.172Z,95718.44
2023-03-29T07:35:43.451Z,95719.13
2023-03-29T07:36:45.204Z,95722.78
2023-03-29T07:37:47.578Z,95716.09
2023-03-29T07:38:49.934Z,95716.69
2023-03-29T07:39:54.593Z,95722.22
2023-03-29T07:41:10.738Z,95716.13
2023-03-29T07:42:28.922Z,95720.16
2023-03-29T07:43:30.885Z,95718.66
2023-03-29T07:44:33.606Z,95722.34
2023-03-29T07:45:35.571Z,95723.50
2023-03-29T07:46:44.525Z,95721.66
2023-03-29T07:47:53.636Z,95726.47
2023-03-29T07:48:57.761Z,95727.63
2023-03-29T07:49:59.752Z,95728.41
2023-03-29T07:51:02.001Z,95723.69
2023-03-29T07:52:09.164Z,95725.31
2023-03-29T07:53:17.100Z,95727.16
2023-03-29T07:54:18.880Z,95723.03
2023-03-29T07:55:47.581Z,95728.63
2023-03-29T07:57:10.977Z,95734.59
2023-03-29T07:58:20.159Z,95732.44
2023-03-29T07:59:22.286Z,95727.84
2023-03-29T08:00:45.892Z,95735.88
2023-03-29T08:02:11.055Z,95736.56
2023-03-29T08:03:24.903Z,95735.81
2023-03-29T08:04:28.929Z,95736.69
2023-03-29T08:05:49.560Z,95743.59
2023-03-29T08:06:52.424Z,95746.69
2023-03-29T08:07:59.406Z,95748.41
2023-03-29T08:09:14.705Z,95741.94
2023-03-29T08:10:21.108Z,95745.06
2023-03-29T08:11:46.779Z,95748.31
2023-03-29T08:12:54.510Z,95751.53
2023-03-29T08:14:03.358Z,95755.31
2023-03-29T08:15:28.241Z,95756.19
2023-03-29T08:16:30.046Z,95755.28
2023-03-29T08:17:41.690Z,95742.41
2023-03-29T08:18:45.856Z,95748.84
2023-03-29T08:19:51.007Z,95747.94
2023-03-29T08:20:55.951Z,95756.66
2023-03-29T08:21:57.544Z,95757.00
2023-03-29T08:23:01.323Z,95755.03
2023-03-29T08:24:17.584Z,95752.22
2023-03-29T08:25:23.943Z,95750.88
2023-03-29T08:26:28.290Z,95751.09
2023-03-29T08:27:33.106Z,95756.94
2023-03-29T08:28:35.711Z,95752.09
2023-03-29T08:29:37.342Z,95756.38
2023-03-29T08:30:39.707Z,95759.34
2023-03-29T08:31:41.634Z,95768.41
2023-03-29T08:32:47.702Z,95762.22
2023-03-29T08:33:51.575Z,95750.09
2023-03-29T08:35:16.053Z,95741.69
2023-03-29T08:36:26.431Z,95747.28
2023-03-29T08:37:32.680Z,95745.53
2023-03-29T08:38:35.465Z,95745.97
2023-03-29T08:39:38.127Z,95743.19
2023-03-29T08:41:31.888Z,95742.00
2023-03-29T08:43:09.821Z,95744.00
2023-03-29T08:45:01.351Z,95739.94
2023-03-29T08:46:16.435Z,95737.47
2023-03-29T08:47:32.853Z,95742.34
2023-03-29T08:48:47.478Z,95737.13
2023-03-29T08:49:55.603Z,95738.09
2023-03-29T08:51:15.469Z,95743.47
2023-03-29T08:52:25.797Z,95745.16
2023-03-29T08:53:44.152Z,95749.47
2023-03-29T08:55:31.985Z,95755.06
2023-03-29T08:56:54.383Z,95753.06
2023-03-29T08:58:08.454Z,95759.22
2023-03-29T08:59:22.752Z,95754.25
2023-03-29T09:00:28.537Z,95761.81
2023-03-29T09:01:35.349Z,95760.84
2023-03-29T09:02:38.278Z,95761.78
2023-03-29T09:03:50.294Z,95766.09
2023-03-29T09:05:29.395Z,95765.28
2023-03-29T09:06:58.224Z,95762.53
2023-03-29T09:08:13.433Z,95764.13
2023-03-29T09:09:20.701Z,95754.63
2023-03-29T09:10:53.544Z,95759.66
2023-03-29T09:12:23.264Z,95754.84
2023-03-29T09:13:32.781Z,95754.72
2023-03-29T09:14:48.421Z,95753.94
2023-03-29T09:16:01.405Z,95754.78
2023-03-29T09:17:32.549Z,95749.03
2023-03-29T09:19:06.337Z,95753.13
2023-03-29T09:20:22.857Z,95741.66
2023-03-29T09:21:46.459Z,95753.75
2023-03-29T09:23:27.272Z,95744.69
2023-03-29T09:25:21.285Z,95751.69
2023-03-29T09:26:47.646Z,95750.47
2023-03-29T09:28:32.116Z,95742.53
2023-03-29T09:30:12.259Z,95742.22
2023-03-29T09:31:37.186Z,95740.75
2023-03-29T09:32:52.583Z,95735.56
2023-03-29T09:33:59.771Z,95741.47
2023-03-29T09:35:18.428Z,95735.63
2023-03-29T09:36:40.652Z,95740.63
2023-03-29T09:37:42.548Z,95730.84
2023-03-29T09:38:50.903Z,95733.84
2023-03-29T09:39:53.526Z,95730.19
2023-03-29T09:41:16.394Z,95730.75
2023-03-29T09:42:19.866Z,95716.59
2023-03-29T09:43:36.180Z,95725.88
2023-03-29T09:45:08.867Z,95732.84
2023-03-29T09:46:34.327Z,95733.44
2023-03-29T09:47:46.268Z,95739.34
2023-03-29T09:48:50.201Z,95742.81
2023-03-29T09:49:57.592Z,95737.53
2023-03-29T09:51:01.516Z,95746.91
2023-03-29T09:52:09.196Z,95750.09
2023-03-29T09:53:11.039Z,95744.59
2023-03-29T09:54:20.755Z,95748.03
2023-03-29T09:55:44.880Z,95747.53
2023-03-29T09:57:13.841Z,95748.59
2023-03-29T09:58:27.632Z,95743.28
2023-03-29T09:59:30.696Z,95741.72
2023-03-29T10:00:34.749Z,95750.25
2023-03-29T10:01:41.983Z,95745.44
2023-03-29T10:02:53.747Z,95749.97
2023-03-29T10:04:01.560Z,95742.25
2023-03-29T10:05:07.461Z,95738.00
2023-03-29T10:06:12.205Z,95746.53
2023-03-29T10:07:20.660Z,95762.50
2023-03-29T10:08:50.887Z,95750.03
2023-03-29T10:09:58.417Z,95696.25
2023-03-29T10:11:03.686Z,95704.53
2023-03-29T10:12:07.094Z,95701.09
2023-03-29T10:13:46.097Z,95713.28
2023-03-29T10:14:57.493Z,95707.78
2023-03-29T10:16:04.451Z,95700.38
2023-03-29T10:17:22.301Z,95708.06
2023-03-29T10:18:27.675Z,95707.28
2023-03-29T10:19:34.992Z,95708.09
2023-03-29T10:20:40.166Z,95699.09
2023-03-29T10:21:42.411Z,95702.59
2023-03-29T10:22:54.321Z,95705.50
2023-03-29T10:23:59.542Z,95706.72
2023-03-29T10:25:02.141Z,95702.38
2023-03-29T10:26:23.999Z,95696.31
2023-03-29T10:27:30.786Z,95690.50
2023-03-29T10:28:35.073Z,95695.06
2023-03-29T10:29:41.057Z,95703.34
2023-03-29T10:30:45.912Z,95703.88
2023-03-29T10:31:47.970Z,95708.41
2023-03-29T10:32:58.033Z,95704.41
2023-03-29T10:34:06.335Z,95708.69
2023-03-29T10:35:12.974Z,95701.25
2023-03-29T10:36:15.464Z,95696.22
2023-03-29T10:37:19.528Z,95700.47
2023-03-29T10:38:24.521Z,95691.66
2023-03-29T10:39:29.750Z,95702.59
2023-03-29T10:40:36.008Z,95697.00
2023-03-29T10:41:37.798Z,95698.06
2023-03-29T10:42:49.901Z,95700.72
2023-03-29T10:43:52.066Z,95694.41
2023-03-29T10:44:59.540Z,95689.03
2023-03-29T10:46:19.458Z,95692.72
2023-03-29T10:47:25.163Z,95689.03
2023-03-29T10:48:30.769Z,95690.91
2023-03-29T10:49:41.111Z,95689.50
2023-03-29T10:50:48.309Z,95690.63
2023-03-29T10:51:52.314Z,95694.63
2023-03-29T10:52:56.960Z,95694.31
2023-03-29T10:53:59.355Z,95694.34
2023-03-29T10:55:01.090Z,95684.75
2023-03-29T10:56:16.229Z,95687.91
2023-03-29T10:57:56.208Z,95683.66
2023-03-29T10:59:16.250Z,95686.84
2023-03-29T11:00:33.021Z,95684.66
2023-03-29T11:01:42.131Z,95687.91
2023-03-29T11:03:17.060Z,95685.22
2023-03-29T11:04:19.967Z,95687.91
2023-03-29T11:05:46.638Z,95682.03
2023-03-29T11:07:28.791Z,95686.03
2023-03-29T11:08:36.930Z,95690.34
2023-03-29T11:09:57.317Z,95688.75
2023-03-29T11:11:35.220Z,95679.97
2023-03-29T11:12:40.009Z,95685.03
2023-03-29T11:13:59.347Z,95681.59
2023-03-29T11:15:20.435Z,95682.09
2023-03-29T11:16:31.074Z,95675.22
2023-03-29T11:17:44.723Z,95668.78
2023-03-29T11:19:09.318Z,95665.03
2023-03-29T11:20:43.564Z,95670.69
2023-03-29T11:21:45.722Z,95669.16
2023-03-29T11:23:16.431Z,95676.31
2023-03-29T11:24:50.613Z,95676.63
2023-03-29T11:25:54.867Z,95676.22
2023-03-29T11:27:07.305Z,95679.19
2023-03-29T11:28:35.290Z,95680.31
2023-03-29T11:30:06.567Z,95682.44
2023-03-29T11:31:27.198Z,95679.56
2023-03-29T11:32:51.931Z,95679.59
2023-03-29T11:34:06.132Z,95677.47
2023-03-29T11:35:42.792Z,95697.19
2023-03-29T11:36:57.793Z,95683.63
2023-03-29T11:38:19.864Z,95673.56
2023-03-29T11:39:41.717Z,95668.75
2023-03-29T11:41:20.603Z,95667.44
2023-03-29T11:42:32.212Z,95669.84
2023-03-29T11:44:02.411Z,95667.69
2023-03-29T11:45:06.138Z,95677.03
2023-03-29T11:46:11.082Z,95674.34
2023-03-29T11:47:37.255Z,95684.75
2023-03-29T11:48:55.595Z,95683.16
2023-03-29T11:50:03.736Z,95680.50
2023-03-29T11:51:15.524Z,95671.97
2023-03-29T11:52:29.047Z,95674.63
2023-03-29T11:53:43.357Z,95670.06
2023-03-29T11:55:18.271Z,95670.38
2023-03-29T11:56:29.177Z,95678.09
2023-03-29T11:57:56.970Z,95683.69
2023-03-29T11:59:04.698Z,95673.28
2023-03-29T12:00:22.329Z,95670.88
2023-03-29T12:01:31.698Z,95678.59
2023-03-29T12:02:40.301Z,95678.31
2023-03-29T12:04:02.165Z,95684.19
2023-03-29T12:05:13.769Z,95686.31
2023-03-29T12:06:34.811Z,95680.97
2023-03-29T12:07:43.863Z,95680.97
2023-03-29T12:08:56.670Z,95671.38
2023-03-29T12:10:16.725Z,95677.72
2023-03-29T12:11:18.826Z,95682.22
2023-03-29T12:12:48.283Z,95683.03
2023-03-29T12:14:03.726Z,95677.09
2023-03-29T12:15:11.255Z,95667.25
2023-03-29T12:16:32.604Z,95663.78
2023-03-29T12:17:41.914Z,95672.28
2023-03-29T12:18:48.393Z,95676.03
2023-03-29T12:20:01.641Z,95679.50
2023-03-29T12:21:11.890Z,95684.03
2023-03-29T12:22:13.818Z,95683.75
2023-03-29T12:24:20.856Z,95673.09
2023-03-29T12:25:38.079Z,95663.25
2023-03-29T12:26:46.469Z,95664.91
2023-03-29T12:28:04.966Z,95667.03
2023-03-29T12:29:21.732Z,95663.81
2023-03-29T12:30:27.286Z,95670.75
2023-03-29T12:31:32.538Z,95664.59
2023-03-29T12:33:05.052Z,95667.81
2023-03-29T12:34:35.095Z,95666.50
2023-03-29T12:36:04.605Z,95658.78
2023-03-29T12:37:52.765Z,95662.50
2023-03-29T12:39:31.373Z,95661.19
2023-03-29T12:41:02.141Z,95674.28
2023-03-29T12:42:53.516Z,95662.28
2023-03-29T12:44:23.527Z,95663.03
2023-03-29T12:45:48.364Z,95664.38
2023-03-29T12:46:59.960Z,95659.03
2023-03-29T12:48:01.910Z,95661.13
2023-03-29T12:49:19.855Z,95660.31
2023-03-29T12:50:28.590Z,95659.53
2023-03-29T12:51:33.069Z,95656.31
2023-03-29T12:52:36.653Z,95653.88
2023-03-29T12:53:50.893Z,95651.97
2023-03-29T12:54:57.971Z,95658.88
2023-03-29T12:56:02.998Z,95654.66
2023-03-29T12:57:45.015Z,95649.97
2023-03-29T12:59:05.346Z,95651.50
2023-03-29T13:01:25.026Z,95655.22
2023-03-29T13:02:37.087Z,95658.50
2023-03-29T13:03:49.534Z,95654.81
2023-03-29T13:05:01.533Z,95654.75
2023-03-29T13:06:05.466Z,95653.44
2023-03-29T13:07:16.958Z,95652.09
2023-03-29T13:08:35.128Z,95641.13
2023-03-29T13:09:53.462Z,95640.66
2023-03-29T13:10:59.147Z,95640.06
2023-03-29T13:12:08.851Z,95640.34
2023-03-29T13:13:26.535Z,95642.19
2023-03-29T13:14:31.906Z,95648.00
2023-03-29T13:15:35.584Z,95647.75
2023-03-29T13:16:40.541Z,95650.94
2023-03-29T13:17:43.288Z,95647.72
2023-03-29T13:19:13.716Z,95643.75
2023-03-29T13:20:43.289Z,95642.38
2023-03-29T13:21:55.489Z,95636.25
2023-03-29T13:23:03.823Z,95644.56
2023-03-29T13:24:37.140Z,95647.97
2023-03-29T13:26:00.272Z,95642.88
2023-03-29T13:27:05.283Z,95647.69
2023-03-29T13:28:37.791Z,95641.28
2023-03-29T13:29:51.400Z,95639.72
2023-03-29T13:30:54.078Z,95651.44
2023-03-29T13:31:58.696Z,95647.66
2023-03-29T13:33:09.704Z,95644.44
2023-03-29T13:34:11.866Z,95643.63
2023-03-29T13:35:26.770Z,95646.56
2023-03-29T13:36:58.736Z,95639.41
2023-03-29T13:38:03.666Z,95635.34
2023-03-29T13:39:16.327Z,95631.06
2023-03-29T13:40:33.220Z,95627.84
2023-03-29T13:41:41.149Z,95620.31
2023-03-29T13:42:43.088Z,95625.59
2023-03-29T13:43:54.168Z,95629.91
2023-03-29T13:45:13.204Z,95623.97
2023-03-29T13:46:41.359Z,95623.13
2023-03-29T13:47:58.437Z,95629.19
2023-03-29T13:49:19.789Z,95628.06
2023-03-29T13:50:36.901Z,95618.75
2023-03-29T13:51:42.067Z,95619.50
2023-03-29T13:53:11.040Z,95618.66
2023-03-29T13:54:13.089Z,95619.66
2023-03-29T13:55:26.318Z,95620.44
2023-03-29T13:56:55.095Z,95622.31
2023-03-29T13:58:04.174Z,95616.38
2023-03-29T13:59:15.136Z,95621.47
2023-03-29T14:00:23.171Z,95609.16
2023-03-29T14:02:02.914Z,95612.91
2023-03-29T14:03:14.471Z,95618.25
2023-03-29T14:04:21.914Z,95618.50
2023-03-29T14:05:31.490Z,95612.38
2023-03-29T14:06:37.210Z,95602.72
2023-03-29T14:07:45.588Z,95604.06